sensor_id;sensor_type;location;lat;lon;timestamp;P1;durP1;ratioP1;P2;durP2;ratioP2
64966;SDS011;51710;38.732;-121.358;2023-03-23T00:01:59;4.15;;;1.75;;
64966;SDS011;51710;38.732;-121.358;2023-03-23T00:04:25;3.80;;;1.10;;
64966;SDS011;51710;38.732;-121.358;2023-03-23T00:06:54;2.47;;;0.80;;
64966;SDS011;51710;38.732;-121.358;2023-03-23T00:09:20;3.92;;;1.02;;
64966;SDS011;51710;38.732;-121.358;2023-03-23T00:11:49;2.45;;;1.00;;
64966;SDS011;51710;38.732;-121.358;2023-03-23T00:14:17;3.33;;;1.50;;
64966;SDS011;51710;38.732;-121.358;2023-03-23T00:16:47;3.10;;;1.20;;
64966;SDS011;51710;38.732;-121.358;2023-03-23T00:19:16;1.08;;;0.63;;
64966;SDS011;51710;38.732;-121.358;2023-03-23T00:21:44;2.20;;;0.70;;
64966;SDS011;51710;38.732;-121.358;2023-03-23T00:24:12;2.13;;;0.70;;
64966;SDS011;51710;38.732;-121.358;2023-03-23T00:26:44;2.78;;;1.10;;
64966;SDS011;51710;38.732;-121.358;2023-03-23T00:29:21;1.75;;;0.80;;
64966;SDS011;51710;38.732;-121.358;2023-03-23T00:31:48;1.52;;;0.70;;
64966;SDS011;51710;38.732;-121.358;2023-03-23T00:34:16;2.05;;;0.95;;
64966;SDS011;51710;38.732;-121.358;2023-03-23T00:36:45;1.65;;;0.80;;
64966;SDS011;51710;38.732;-121.358;2023-03-23T00:39:12;1.98;;;0.90;;
64966;SDS011;51710;38.732;-121.358;2023-03-23T00:41:44;1.83;;;0.90;;
64966;SDS011;51710;38.732;-121.358;2023-03-23T00:44:12;1.88;;;1.05;;
64966;SDS011;51710;38.732;-121.358;2023-03-23T00:46:47;3.92;;;1.15;;
64966;SDS011;51710;38.732;-121.358;2023-03-23T00:49:18;3.72;;;1.00;;
64966;SDS011;51710;38.732;-121.358;2023-03-23T00:51:50;2.42;;;1.15;;
64966;SDS011;51710;38.732;-121.358;2023-03-23T00:54:20;2.90;;;0.82;;
64966;SDS011;51710;38.732;-121.358;2023-03-23T00:56:47;2.78;;;1.10;;
64966;SDS011;51710;38.732;-121.358;2023-03-23T00:59:13;2.08;;;0.82;;
64966;SDS011;51710;38.732;-121.358;2023-03-23T01:01:40;3.78;;;1.10;;
64966;SDS011;51710;38.732;-121.358;2023-03-23T01:04:06;4.20;;;1.30;;
64966;SDS011;51710;38.732;-121.358;2023-03-23T01:06:35;1.95;;;0.80;;
64966;SDS011;51710;38.732;-121.358;2023-03-23T01:09:06;3.25;;;1.17;;
64966;SDS011;51710;38.732;-121.358;2023-03-23T01:11:33;3.40;;;1.00;;
64966;SDS011;51710;38.732;-121.358;2023-03-23T01:14:00;2.05;;;1.10;;
64966;SDS011;51710;38.732;-121.358;2023-03-23T01:16:27;3.67;;;1.50;;
64966;SDS011;51710;38.732;-121.358;2023-03-23T01:18:53;3.58;;;1.38;;
64966;SDS011;51710;38.732;-121.358;2023-03-23T01:21:20;2.70;;;1.05;;
64966;SDS011;51710;38.732;-121.358;2023-03-23T01:23:47;1.50;;;0.80;;
64966;SDS011;51710;38.732;-121.358;2023-03-23T01:26:15;2.50;;;1.20;;
64966;SDS011;51710;38.732;-121.358;2023-03-23T01:28:43;4.88;;;1.23;;
64966;SDS011;51710;38.732;-121.358;2023-03-23T01:31:11;1.70;;;0.80;;
64966;SDS011;51710;38.732;-121.358;2023-03-23T01:33:40;2.90;;;0.77;;
64966;SDS011;51710;38.732;-121.358;2023-03-23T01:36:09;1.67;;;0.70;;
64966;SDS011;51710;38.732;-121.358;2023-03-23T01:38:38;1.92;;;1.20;;
64966;SDS011;51710;38.732;-121.358;2023-03-23T01:41:04;2.58;;;0.70;;
64966;SDS011;51710;38.732;-121.358;2023-03-23T01:43:31;1.38;;;0.60;;
64966;SDS011;51710;38.732;-121.358;2023-03-23T01:45:57;1.38;;;0.50;;
64966;SDS011;51710;38.732;-121.358;2023-03-23T01:48:25;5.30;;;1.42;;
64966;SDS011;51710;38.732;-121.358;2023-03-23T01:51:06;3.75;;;1.25;;
64966;SDS011;51710;38.732;-121.358;2023-03-23T01:53:40;2.45;;;1.05;;
64966;SDS011;51710;38.732;-121.358;2023-03-23T01:56:11;4.53;;;1.35;;
64966;SDS011;51710;38.732;-121.358;2023-03-23T01:58:41;2.88;;;0.98;;
64966;SDS011;51710;38.732;-121.358;2023-03-23T02:01:10;2.85;;;1.10;;
64966;SDS011;51710;38.732;-121.358;2023-03-23T02:03:40;1.50;;;0.70;;
64966;SDS011;51710;38.732;-121.358;2023-03-23T02:06:10;0.93;;;0.68;;
64966;SDS011;51710;38.732;-121.358;2023-03-23T02:08:36;2.08;;;0.60;;
64966;SDS011;51710;38.732;-121.358;2023-03-23T02:11:12;1.13;;;0.70;;
64966;SDS011;51710;38.732;-121.358;2023-03-23T02:13:43;2.58;;;1.00;;
64966;SDS011;51710;38.732;-121.358;2023-03-23T02:21:34;1.67;;;0.65;;
64966;SDS011;51710;38.732;-121.358;2023-03-23T02:32:34;3.58;;;0.80;;
64966;SDS011;51710;38.732;-121.358;2023-03-23T02:35:10;0.95;;;0.57;;
64966;SDS011;51710;38.732;-121.358;2023-03-23T02:37:48;0.70;;;0.50;;
64966;SDS011;51710;38.732;-121.358;2023-03-23T02:40:24;1.58;;;0.73;;
64966;SDS011;51710;38.732;-121.358;2023-03-23T02:42:56;1.48;;;0.70;;
64966;SDS011;51710;38.732;-121.358;2023-03-23T02:45:24;2.60;;;0.70;;
64966;SDS011;51710;38.732;-121.358;2023-03-23T02:47:55;3.90;;;0.68;;
64966;SDS011;51710;38.732;-121.358;2023-03-23T02:50:23;1.23;;;0.85;;
64966;SDS011;51710;38.732;-121.358;2023-03-23T02:52:52;2.17;;;0.70;;
64966;SDS011;51710;38.732;-121.358;2023-03-23T02:55:21;1.15;;;0.70;;
64966;SDS011;51710;38.732;-121.358;2023-03-23T02:57:54;1.77;;;0.70;;
64966;SDS011;51710;38.732;-121.358;2023-03-23T03:00:20;1.98;;;0.80;;
64966;SDS011;51710;38.732;-121.358;2023-03-23T03:02:49;6.53;;;0.80;;
64966;SDS011;51710;38.732;-121.358;2023-03-23T03:10:26;1.10;;;0.70;;
64966;SDS011;51710;38.732;-121.358;2023-03-23T03:13:17;2.20;;;0.50;;
64966;SDS011;51710;38.732;-121.358;2023-03-23T03:19:04;1.77;;;0.63;;
64966;SDS011;51710;38.732;-121.358;2023-03-23T03:21:36;2.50;;;0.70;;
64966;SDS011;51710;38.732;-121.358;2023-03-23T03:24:07;3.55;;;0.80;;
64966;SDS011;51710;38.732;-121.358;2023-03-23T03:26:37;1.88;;;0.68;;
64966;SDS011;51710;38.732;-121.358;2023-03-23T03:31:45;1.45;;;0.68;;
64966;SDS011;51710;38.732;-121.358;2023-03-23T03:34:15;1.60;;;0.95;;
64966;SDS011;51710;38.732;-121.358;2023-03-23T03:36:46;2.28;;;0.90;;
64966;SDS011;51710;38.732;-121.358;2023-03-23T03:39:15;2.63;;;0.70;;
64966;SDS011;51710;38.732;-121.358;2023-03-23T03:41:42;0.90;;;0.70;;
64966;SDS011;51710;38.732;-121.358;2023-03-23T03:44:09;1.25;;;0.80;;
64966;SDS011;51710;38.732;-121.358;2023-03-23T03:46:36;1.23;;;0.70;;
64966;SDS011;51710;38.732;-121.358;2023-03-23T03:49:04;2.40;;;0.73;;
64966;SDS011;51710;38.732;-121.358;2023-03-23T03:51:33;1.58;;;0.82;;
64966;SDS011;51710;38.732;-121.358;2023-03-23T03:54:00;1.40;;;0.75;;
64966;SDS011;51710;38.732;-121.358;2023-03-23T03:56:27;4.22;;;1.17;;
64966;SDS011;51710;38.732;-121.358;2023-03-23T03:58:53;1.25;;;0.77;;
64966;SDS011;51710;38.732;-121.358;2023-03-23T04:01:20;1.45;;;0.80;;
64966;SDS011;51710;38.732;-121.358;2023-03-23T04:03:50;1.42;;;1.10;;
64966;SDS011;51710;38.732;-121.358;2023-03-23T04:06:17;1.30;;;0.70;;
64966;SDS011;51710;38.732;-121.358;2023-03-23T04:08:44;2.63;;;0.90;;
64966;SDS011;51710;38.732;-121.358;2023-03-23T04:11:11;3.15;;;1.05;;
64966;SDS011;51710;38.732;-121.358;2023-03-23T04:13:39;4.82;;;2.40;;
64966;SDS011;51710;38.732;-121.358;2023-03-23T04:16:06;3.75;;;2.10;;
64966;SDS011;51710;38.732;-121.358;2023-03-23T04:18:34;3.50;;;2.30;;
64966;SDS011;51710;38.732;-121.358;2023-03-23T04:21:02;3.90;;;1.60;;
64966;SDS011;51710;38.732;-121.358;2023-03-23T04:23:30;3.03;;;1.48;;
64966;SDS011;51710;38.732;-121.358;2023-03-23T04:25:58;5.35;;;2.40;;
64966;SDS011;51710;38.732;-121.358;2023-03-23T04:28:25;15.48;;;4.50;;
64966;SDS011;51710;38.732;-121.358;2023-03-23T04:30:53;30.50;;;9.75;;
64966;SDS011;51710;38.732;-121.358;2023-03-23T04:33:21;23.77;;;6.90;;
64966;SDS011;51710;38.732;-121.358;2023-03-23T04:35:51;16.48;;;6.70;;
64966;SDS011;51710;38.732;-121.358;2023-03-23T04:38:18;7.80;;;2.92;;
64966;SDS011;51710;38.732;-121.358;2023-03-23T04:40:46;6.00;;;2.20;;
64966;SDS011;51710;38.732;-121.358;2023-03-23T04:43:17;9.20;;;2.78;;
64966;SDS011;51710;38.732;-121.358;2023-03-23T04:45:47;12.65;;;4.85;;
64966;SDS011;51710;38.732;-121.358;2023-03-23T04:48:27;2.50;;;1.30;;
64966;SDS011;51710;38.732;-121.358;2023-03-23T04:50:58;2.15;;;0.90;;
64966;SDS011;51710;38.732;-121.358;2023-03-23T04:53:28;4.10;;;1.00;;
64966;SDS011;51710;38.732;-121.358;2023-03-23T04:55:55;5.70;;;1.73;;
64966;SDS011;51710;38.732;-121.358;2023-03-23T04:58:22;4.03;;;1.05;;
64966;SDS011;51710;38.732;-121.358;2023-03-23T05:00:50;1.08;;;0.70;;
64966;SDS011;51710;38.732;-121.358;2023-03-23T05:03:16;2.65;;;1.15;;
64966;SDS011;51710;38.732;-121.358;2023-03-23T05:05:43;2.05;;;1.05;;
64966;SDS011;51710;38.732;-121.358;2023-03-23T05:08:20;5.45;;;1.70;;
64966;SDS011;51710;38.732;-121.358;2023-03-23T05:10:51;13.20;;;4.65;;
64966;SDS011;51710;38.732;-121.358;2023-03-23T05:13:21;2.92;;;1.25;;
64966;SDS011;51710;38.732;-121.358;2023-03-23T05:15:48;2.53;;;0.77;;
64966;SDS011;51710;38.732;-121.358;2023-03-23T05:18:15;1.48;;;0.60;;
64966;SDS011;51710;38.732;-121.358;2023-03-23T05:20:41;2.92;;;0.73;;
64966;SDS011;51710;38.732;-121.358;2023-03-23T05:23:12;1.83;;;0.90;;
64966;SDS011;51710;38.732;-121.358;2023-03-23T05:25:38;3.78;;;0.70;;
64966;SDS011;51710;38.732;-121.358;2023-03-23T05:28:08;3.08;;;1.00;;
64966;SDS011;51710;38.732;-121.358;2023-03-23T05:30:36;1.13;;;0.70;;
64966;SDS011;51710;38.732;-121.358;2023-03-23T05:33:04;1.23;;;0.80;;
64966;SDS011;51710;38.732;-121.358;2023-03-23T05:35:31;1.50;;;0.77;;
64966;SDS011;51710;38.732;-121.358;2023-03-23T05:37:57;1.17;;;0.57;;
64966;SDS011;51710;38.732;-121.358;2023-03-23T05:40:24;3.63;;;1.10;;
64966;SDS011;51710;38.732;-121.358;2023-03-23T05:42:53;2.40;;;1.13;;
64966;SDS011;51710;38.732;-121.358;2023-03-23T05:45:21;2.67;;;1.20;;
64966;SDS011;51710;38.732;-121.358;2023-03-23T05:47:48;1.20;;;0.70;;
64966;SDS011;51710;38.732;-121.358;2023-03-23T05:50:15;1.13;;;0.70;;
64966;SDS011;51710;38.732;-121.358;2023-03-23T05:52:42;1.15;;;0.60;;
64966;SDS011;51710;38.732;-121.358;2023-03-23T05:55:09;3.08;;;0.90;;
64966;SDS011;51710;38.732;-121.358;2023-03-23T05:57:35;1.23;;;0.70;;
64966;SDS011;51710;38.732;-121.358;2023-03-23T06:00:03;1.70;;;0.90;;
64966;SDS011;51710;38.732;-121.358;2023-03-23T06:02:40;1.48;;;0.80;;
64966;SDS011;51710;38.732;-121.358;2023-03-23T06:05:10;1.25;;;0.70;;
64966;SDS011;51710;38.732;-121.358;2023-03-23T06:07:37;1.60;;;0.70;;
64966;SDS011;51710;38.732;-121.358;2023-03-23T06:10:06;1.77;;;0.98;;
64966;SDS011;51710;38.732;-121.358;2023-03-23T06:12:34;0.90;;;0.60;;
64966;SDS011;51710;38.732;-121.358;2023-03-23T06:15:02;2.70;;;0.90;;
64966;SDS011;51710;38.732;-121.358;2023-03-23T06:17:30;1.30;;;0.70;;
64966;SDS011;51710;38.732;-121.358;2023-03-23T06:19:56;0.68;;;0.63;;
64966;SDS011;51710;38.732;-121.358;2023-03-23T06:22:23;3.22;;;0.90;;
64966;SDS011;51710;38.732;-121.358;2023-03-23T06:24:49;0.93;;;0.85;;
64966;SDS011;51710;38.732;-121.358;2023-03-23T06:27:15;1.25;;;0.80;;
64966;SDS011;51710;38.732;-121.358;2023-03-23T06:29:42;1.85;;;0.80;;
64966;SDS011;51710;38.732;-121.358;2023-03-23T06:32:09;0.93;;;0.70;;
64966;SDS011;51710;38.732;-121.358;2023-03-23T06:34:38;4.10;;;0.90;;
64966;SDS011;51710;38.732;-121.358;2023-03-23T06:37:05;2.22;;;0.80;;
64966;SDS011;51710;38.732;-121.358;2023-03-23T06:39:32;1.48;;;0.70;;
64966;SDS011;51710;38.732;-121.358;2023-03-23T06:41:58;1.67;;;0.70;;
64966;SDS011;51710;38.732;-121.358;2023-03-23T06:44:24;1.90;;;0.80;;
64966;SDS011;51710;38.732;-121.358;2023-03-23T06:46:51;1.13;;;0.65;;
64966;SDS011;51710;38.732;-121.358;2023-03-23T06:49:17;1.83;;;0.60;;
64966;SDS011;51710;38.732;-121.358;2023-03-23T06:51:43;0.70;;;0.60;;
64966;SDS011;51710;38.732;-121.358;2023-03-23T06:54:10;2.58;;;0.82;;
64966;SDS011;51710;38.732;-121.358;2023-03-23T06:56:36;1.40;;;0.50;;
64966;SDS011;51710;38.732;-121.358;2023-03-23T06:59:02;0.80;;;0.68;;
64966;SDS011;51710;38.732;-121.358;2023-03-23T07:01:29;0.30;;;0.30;;
64966;SDS011;51710;38.732;-121.358;2023-03-23T07:03:55;0.80;;;0.50;;
64966;SDS011;51710;38.732;-121.358;2023-03-23T07:06:21;0.50;;;0.45;;
64966;SDS011;51710;38.732;-121.358;2023-03-23T07:08:49;0.88;;;0.50;;
64966;SDS011;51710;38.732;-121.358;2023-03-23T07:11:15;2.50;;;0.80;;
64966;SDS011;51710;38.732;-121.358;2023-03-23T07:13:41;0.93;;;0.40;;
64966;SDS011;51710;38.732;-121.358;2023-03-23T07:16:08;0.63;;;0.50;;
64966;SDS011;51710;38.732;-121.358;2023-03-23T07:18:36;0.88;;;0.68;;
64966;SDS011;51710;38.732;-121.358;2023-03-23T07:21:02;0.30;;;0.30;;
64966;SDS011;51710;38.732;-121.358;2023-03-23T07:23:29;1.15;;;0.55;;
64966;SDS011;51710;38.732;-121.358;2023-03-23T07:25:56;1.70;;;0.50;;
64966;SDS011;51710;38.732;-121.358;2023-03-23T07:28:22;0.93;;;0.80;;
64966;SDS011;51710;38.732;-121.358;2023-03-23T07:30:48;1.35;;;0.55;;
64966;SDS011;51710;38.732;-121.358;2023-03-23T07:33:14;0.60;;;0.60;;
64966;SDS011;51710;38.732;-121.358;2023-03-23T07:35:41;0.70;;;0.40;;
64966;SDS011;51710;38.732;-121.358;2023-03-23T07:38:07;0.95;;;0.65;;
64966;SDS011;51710;38.732;-121.358;2023-03-23T07:40:34;2.25;;;0.68;;
64966;SDS011;51710;38.732;-121.358;2023-03-23T07:43:02;1.17;;;0.50;;
64966;SDS011;51710;38.732;-121.358;2023-03-23T07:45:30;1.00;;;0.60;;
64966;SDS011;51710;38.732;-121.358;2023-03-23T07:47:56;0.70;;;0.47;;
64966;SDS011;51710;38.732;-121.358;2023-03-23T07:50:23;1.50;;;0.60;;
64966;SDS011;51710;38.732;-121.358;2023-03-23T07:52:55;1.05;;;0.70;;
64966;SDS011;51710;38.732;-121.358;2023-03-23T07:55:23;1.13;;;1.00;;
64966;SDS011;51710;38.732;-121.358;2023-03-23T07:57:53;2.65;;;0.75;;
64966;SDS011;51710;38.732;-121.358;2023-03-23T08:00:20;1.30;;;0.70;;
64966;SDS011;51710;38.732;-121.358;2023-03-23T08:02:50;2.88;;;0.60;;
64966;SDS011;51710;38.732;-121.358;2023-03-23T08:05:18;1.00;;;0.50;;
64966;SDS011;51710;38.732;-121.358;2023-03-23T08:07:46;0.50;;;0.50;;
64966;SDS011;51710;38.732;-121.358;2023-03-23T08:10:13;1.17;;;0.50;;
64966;SDS011;51710;38.732;-121.358;2023-03-23T08:12:44;1.27;;;0.52;;
64966;SDS011;51710;38.732;-121.358;2023-03-23T08:15:12;1.02;;;0.50;;
64966;SDS011;51710;38.732;-121.358;2023-03-23T08:17:41;2.97;;;0.50;;
64966;SDS011;51710;38.732;-121.358;2023-03-23T08:20:08;1.20;;;0.60;;
64966;SDS011;51710;38.732;-121.358;2023-03-23T08:22:39;2.25;;;0.60;;
64966;SDS011;51710;38.732;-121.358;2023-03-23T08:25:07;1.20;;;0.70;;
64966;SDS011;51710;38.732;-121.358;2023-03-23T08:27:34;0.93;;;0.40;;
64966;SDS011;51710;38.732;-121.358;2023-03-23T08:30:00;0.85;;;0.60;;
64966;SDS011;51710;38.732;-121.358;2023-03-23T08:32:27;1.30;;;0.63;;
64966;SDS011;51710;38.732;-121.358;2023-03-23T08:34:54;2.25;;;0.50;;
64966;SDS011;51710;38.732;-121.358;2023-03-23T08:37:21;3.13;;;0.90;;
64966;SDS011;51710;38.732;-121.358;2023-03-23T08:39:50;0.95;;;0.70;;
64966;SDS011;51710;38.732;-121.358;2023-03-23T08:42:17;1.35;;;0.68;;
64966;SDS011;51710;38.732;-121.358;2023-03-23T08:44:44;1.67;;;0.60;;
64966;SDS011;51710;38.732;-121.358;2023-03-23T08:47:10;1.15;;;0.50;;
64966;SDS011;51710;38.732;-121.358;2023-03-23T08:49:36;1.25;;;0.60;;
64966;SDS011;51710;38.732;-121.358;2023-03-23T08:52:03;1.15;;;0.90;;
64966;SDS011;51710;38.732;-121.358;2023-03-23T08:54:29;1.35;;;0.70;;
64966;SDS011;51710;38.732;-121.358;2023-03-23T08:56:59;1.95;;;0.63;;
64966;SDS011;51710;38.732;-121.358;2023-03-23T08:59:26;1.05;;;0.60;;
64966;SDS011;51710;38.732;-121.358;2023-03-23T09:01:52;0.75;;;0.60;;
64966;SDS011;51710;38.732;-121.358;2023-03-23T09:04:18;1.30;;;0.60;;
64966;SDS011;51710;38.732;-121.358;2023-03-23T09:06:45;1.58;;;0.68;;
64966;SDS011;51710;38.732;-121.358;2023-03-23T09:09:14;2.15;;;0.50;;
64966;SDS011;51710;38.732;-121.358;2023-03-23T09:11:40;3.97;;;0.80;;
64966;SDS011;51710;38.732;-121.358;2023-03-23T09:14:07;1.40;;;0.70;;
64966;SDS011;51710;38.732;-121.358;2023-03-23T09:16:33;1.30;;;0.75;;
64966;SDS011;51710;38.732;-121.358;2023-03-23T09:19:00;2.55;;;0.75;;
64966;SDS011;51710;38.732;-121.358;2023-03-23T09:21:27;1.02;;;0.70;;
64966;SDS011;51710;38.732;-121.358;2023-03-23T09:23:54;0.90;;;0.60;;
64966;SDS011;51710;38.732;-121.358;2023-03-23T09:26:24;1.73;;;0.88;;
64966;SDS011;51710;38.732;-121.358;2023-03-23T09:28:51;1.15;;;0.70;;
64966;SDS011;51710;38.732;-121.358;2023-03-23T09:31:18;1.00;;;0.70;;
64966;SDS011;51710;38.732;-121.358;2023-03-23T09:33:48;1.15;;;0.70;;
64966;SDS011;51710;38.732;-121.358;2023-03-23T09:36:18;2.70;;;0.77;;
64966;SDS011;51710;38.732;-121.358;2023-03-23T09:38:46;2.00;;;1.13;;
64966;SDS011;51710;38.732;-121.358;2023-03-23T09:41:27;1.70;;;0.88;;
64966;SDS011;51710;38.732;-121.358;2023-03-23T09:52:04;2.28;;;0.82;;
64966;SDS011;51710;38.732;-121.358;2023-03-23T09:54:39;1.60;;;0.80;;
64966;SDS011;51710;38.732;-121.358;2023-03-23T10:00:01;1.17;;;0.80;;
64966;SDS011;51710;38.732;-121.358;2023-03-23T10:05:23;3.50;;;1.02;;
64966;SDS011;51710;38.732;-121.358;2023-03-23T10:08:13;3.13;;;1.05;;
64966;SDS011;51710;38.732;-121.358;2023-03-23T10:10:50;1.65;;;1.10;;
64966;SDS011;51710;38.732;-121.358;2023-03-23T10:16:24;1.45;;;0.80;;
64966;SDS011;51710;38.732;-121.358;2023-03-23T10:21:54;1.52;;;1.20;;
64966;SDS011;51710;38.732;-121.358;2023-03-23T10:24:48;1.17;;;0.82;;
64966;SDS011;51710;38.732;-121.358;2023-03-23T10:27:26;1.70;;;0.90;;
64966;SDS011;51710;38.732;-121.358;2023-03-23T10:30:40;1.45;;;0.90;;
64966;SDS011;51710;38.732;-121.358;2023-03-23T10:38:35;2.25;;;1.25;;
64966;SDS011;51710;38.732;-121.358;2023-03-23T10:41:15;1.65;;;1.20;;
64966;SDS011;51710;38.732;-121.358;2023-03-23T10:43:44;1.67;;;0.90;;
64966;SDS011;51710;38.732;-121.358;2023-03-23T10:46:19;3.90;;;1.75;;
64966;SDS011;51710;38.732;-121.358;2023-03-23T10:48:52;3.30;;;1.35;;
64966;SDS011;51710;38.732;-121.358;2023-03-23T10:51:22;3.20;;;1.35;;
64966;SDS011;51710;38.732;-121.358;2023-03-23T10:53:58;3.42;;;1.60;;
64966;SDS011;51710;38.732;-121.358;2023-03-23T10:56:37;2.70;;;1.30;;
64966;SDS011;51710;38.732;-121.358;2023-03-23T11:01:53;3.65;;;1.70;;
64966;SDS011;51710;38.732;-121.358;2023-03-23T11:04:22;6.47;;;2.00;;
64966;SDS011;51710;38.732;-121.358;2023-03-23T11:06:51;3.25;;;1.65;;
64966;SDS011;51710;38.732;-121.358;2023-03-23T11:09:21;4.85;;;1.90;;
64966;SDS011;51710;38.732;-121.358;2023-03-23T11:11:58;3.45;;;2.35;;
64966;SDS011;51710;38.732;-121.358;2023-03-23T11:14:26;5.20;;;1.95;;
64966;SDS011;51710;38.732;-121.358;2023-03-23T11:16:57;3.42;;;1.80;;
64966;SDS011;51710;38.732;-121.358;2023-03-23T11:19:30;2.55;;;1.63;;
64966;SDS011;51710;38.732;-121.358;2023-03-23T11:24:34;4.97;;;1.90;;
64966;SDS011;51710;38.732;-121.358;2023-03-23T11:27:06;5.30;;;1.97;;
64966;SDS011;51710;38.732;-121.358;2023-03-23T11:29:34;5.55;;;1.85;;
64966;SDS011;51710;38.732;-121.358;2023-03-23T11:32:04;7.68;;;2.22;;
64966;SDS011;51710;38.732;-121.358;2023-03-23T11:34:39;6.90;;;2.17;;
64966;SDS011;51710;38.732;-121.358;2023-03-23T11:37:09;5.63;;;1.80;;
64966;SDS011;51710;38.732;-121.358;2023-03-23T11:39:57;6.07;;;2.05;;
64966;SDS011;51710;38.732;-121.358;2023-03-23T11:42:27;5.63;;;1.60;;
64966;SDS011;51710;38.732;-121.358;2023-03-23T11:56:43;9.73;;;2.90;;
64966;SDS011;51710;38.732;-121.358;2023-03-23T11:59:17;8.05;;;3.08;;
64966;SDS011;51710;38.732;-121.358;2023-03-23T12:04:40;10.98;;;3.00;;
64966;SDS011;51710;38.732;-121.358;2023-03-23T12:15:47;12.32;;;3.20;;
64966;SDS011;51710;38.732;-121.358;2023-03-23T12:21:23;6.53;;;3.03;;
64966;SDS011;51710;38.732;-121.358;2023-03-23T12:26:55;11.93;;;3.88;;
64966;SDS011;51710;38.732;-121.358;2023-03-23T12:29:35;8.68;;;3.53;;
64966;SDS011;51710;38.732;-121.358;2023-03-23T12:35:14;9.00;;;3.78;;
64966;SDS011;51710;38.732;-121.358;2023-03-23T12:38:01;10.55;;;3.50;;
64966;SDS011;51710;38.732;-121.358;2023-03-23T12:40:50;7.10;;;3.08;;
64966;SDS011;51710;38.732;-121.358;2023-03-23T12:43:37;5.90;;;3.42;;
64966;SDS011;51710;38.732;-121.358;2023-03-23T12:49:09;7.55;;;3.17;;
64966;SDS011;51710;38.732;-121.358;2023-03-23T12:51:49;11.00;;;3.90;;
64966;SDS011;51710;38.732;-121.358;2023-03-23T12:54:21;10.95;;;3.25;;
64966;SDS011;51710;38.732;-121.358;2023-03-23T12:59:36;6.32;;;2.50;;
64966;SDS011;51710;38.732;-121.358;2023-03-23T13:02:28;12.07;;;2.92;;
64966;SDS011;51710;38.732;-121.358;2023-03-23T13:07:43;12.25;;;2.78;;
64966;SDS011;51710;38.732;-121.358;2023-03-23T13:10:56;11.90;;;2.60;;
64966;SDS011;51710;38.732;-121.358;2023-03-23T13:13:23;7.70;;;2.63;;
64966;SDS011;51710;38.732;-121.358;2023-03-23T13:15:59;9.43;;;2.92;;
64966;SDS011;51710;38.732;-121.358;2023-03-23T13:18:29;12.25;;;3.22;;
64966;SDS011;51710;38.732;-121.358;2023-03-23T13:23:43;9.25;;;2.60;;
64966;SDS011;51710;38.732;-121.358;2023-03-23T13:26:14;10.93;;;2.63;;
64966;SDS011;51710;38.732;-121.358;2023-03-23T13:31:24;10.60;;;2.78;;
64966;SDS011;51710;38.732;-121.358;2023-03-23T13:34:00;10.98;;;3.50;;
64966;SDS011;51710;38.732;-121.358;2023-03-23T13:36:41;7.70;;;2.17;;
64966;SDS011;51710;38.732;-121.358;2023-03-23T13:40:13;12.50;;;2.90;;
64966;SDS011;51710;38.732;-121.358;2023-03-23T13:44:54;9.95;;;3.47;;
64966;SDS011;51710;38.732;-121.358;2023-03-23T13:49:59;8.30;;;2.38;;
64966;SDS011;51710;38.732;-121.358;2023-03-23T14:03:17;7.57;;;2.13;;
64966;SDS011;51710;38.732;-121.358;2023-03-23T14:08:25;11.95;;;2.28;;
64966;SDS011;51710;38.732;-121.358;2023-03-23T14:11:15;9.38;;;1.90;;
64966;SDS011;51710;38.732;-121.358;2023-03-23T14:16:19;7.88;;;2.50;;
64966;SDS011;51710;38.732;-121.358;2023-03-23T14:18:56;5.30;;;2.33;;
64966;SDS011;51710;38.732;-121.358;2023-03-23T14:21:34;10.90;;;2.58;;
64966;SDS011;51710;38.732;-121.358;2023-03-23T14:24:06;9.88;;;2.53;;
64966;SDS011;51710;38.732;-121.358;2023-03-23T14:26:37;11.37;;;2.73;;
64966;SDS011;51710;38.732;-121.358;2023-03-23T14:29:05;7.43;;;2.83;;
64966;SDS011;51710;38.732;-121.358;2023-03-23T14:31:32;12.18;;;2.25;;
64966;SDS011;51710;38.732;-121.358;2023-03-23T14:34:02;8.20;;;2.13;;
64966;SDS011;51710;38.732;-121.358;2023-03-23T14:36:36;13.88;;;3.75;;
64966;SDS011;51710;38.732;-121.358;2023-03-23T14:41:50;7.18;;;1.88;;
64966;SDS011;51710;38.732;-121.358;2023-03-23T14:44:25;5.45;;;2.10;;
64966;SDS011;51710;38.732;-121.358;2023-03-23T14:46:55;8.43;;;1.75;;
64966;SDS011;51710;38.732;-121.358;2023-03-23T14:49:27;5.93;;;2.00;;
64966;SDS011;51710;38.732;-121.358;2023-03-23T14:52:08;8.90;;;2.17;;
64966;SDS011;51710;38.732;-121.358;2023-03-23T14:54:39;6.57;;;2.58;;
64966;SDS011;51710;38.732;-121.358;2023-03-23T14:57:19;5.20;;;2.08;;
64966;SDS011;51710;38.732;-121.358;2023-03-23T14:59:53;5.47;;;2.00;;
64966;SDS011;51710;38.732;-121.358;2023-03-23T15:04:50;7.65;;;2.10;;
64966;SDS011;51710;38.732;-121.358;2023-03-23T15:07:24;10.73;;;2.20;;
64966;SDS011;51710;38.732;-121.358;2023-03-23T15:09:54;7.25;;;1.73;;
64966;SDS011;51710;38.732;-121.358;2023-03-23T15:12:24;8.27;;;2.33;;
64966;SDS011;51710;38.732;-121.358;2023-03-23T15:14:54;6.10;;;1.75;;
64966;SDS011;51710;38.732;-121.358;2023-03-23T15:17:26;5.13;;;1.70;;
64966;SDS011;51710;38.732;-121.358;2023-03-23T15:19:55;3.78;;;1.90;;
64966;SDS011;51710;38.732;-121.358;2023-03-23T15:22:27;4.15;;;1.60;;
64966;SDS011;51710;38.732;-121.358;2023-03-23T15:25:03;5.97;;;1.50;;
64966;SDS011;51710;38.732;-121.358;2023-03-23T15:27:40;5.07;;;1.58;;
64966;SDS011;51710;38.732;-121.358;2023-03-23T15:30:18;4.78;;;1.45;;
64966;SDS011;51710;38.732;-121.358;2023-03-23T15:33:01;6.47;;;1.60;;
64966;SDS011;51710;38.732;-121.358;2023-03-23T15:35:32;4.97;;;1.60;;
64966;SDS011;51710;38.732;-121.358;2023-03-23T15:38:04;3.78;;;1.48;;
64966;SDS011;51710;38.732;-121.358;2023-03-23T15:40:35;3.50;;;1.20;;
64966;SDS011;51710;38.732;-121.358;2023-03-23T15:43:17;5.53;;;1.65;;
64966;SDS011;51710;38.732;-121.358;2023-03-23T15:49:36;4.85;;;1.25;;
64966;SDS011;51710;38.732;-121.358;2023-03-23T15:51:36;4.97;;;1.52;;
64966;SDS011;51710;38.732;-121.358;2023-03-23T15:54:02;4.15;;;1.33;;
64966;SDS011;51710;38.732;-121.358;2023-03-23T15:56:29;5.13;;;1.70;;
64966;SDS011;51710;38.732;-121.358;2023-03-23T15:58:57;5.00;;;1.30;;
64966;SDS011;51710;38.732;-121.358;2023-03-23T16:01:28;4.22;;;1.58;;
64966;SDS011;51710;38.732;-121.358;2023-03-23T16:03:59;4.55;;;1.35;;
64966;SDS011;51710;38.732;-121.358;2023-03-23T16:06:31;3.65;;;1.25;;
64966;SDS011;51710;38.732;-121.358;2023-03-23T16:08:58;4.30;;;1.40;;
64966;SDS011;51710;38.732;-121.358;2023-03-23T16:11:27;4.93;;;1.38;;
64966;SDS011;51710;38.732;-121.358;2023-03-23T16:13:56;4.18;;;1.30;;
64966;SDS011;51710;38.732;-121.358;2023-03-23T16:16:24;6.22;;;1.50;;
64966;SDS011;51710;38.732;-121.358;2023-03-23T16:18:54;2.85;;;1.30;;
64966;SDS011;51710;38.732;-121.358;2023-03-23T16:21:20;6.55;;;1.00;;
64966;SDS011;51710;38.732;-121.358;2023-03-23T16:23:47;2.28;;;1.02;;
64966;SDS011;51710;38.732;-121.358;2023-03-23T16:26:14;5.53;;;1.35;;
64966;SDS011;51710;38.732;-121.358;2023-03-23T16:28:40;3.50;;;1.30;;
64966;SDS011;51710;38.732;-121.358;2023-03-23T16:31:08;3.60;;;1.05;;
64966;SDS011;51710;38.732;-121.358;2023-03-23T16:33:34;4.03;;;1.83;;
64966;SDS011;51710;38.732;-121.358;2023-03-23T16:36:04;5.57;;;1.50;;
64966;SDS011;51710;38.732;-121.358;2023-03-23T16:38:30;4.60;;;1.40;;